Time;durP1;ratioP1;P1;durP2;ratioP2;P2;SDS_P1;SDS_P2;PMS_P1;PMS_P2;Temp;Humidity;BMP_temperature;BMP_pressure;BME280_temperature;BME280_humidity;BME280_pressure;Samples;Min_cycle;Max_cycle;Signal;HPM_P1;HPM_P2
2023/05/07 00:00:45;;;;;;;5.13;4.63;;;8.80;99.90;;;;;;12769310;23;20243;-84
2023/05/07 00:05:48;;;;;;;5.60;4.87;;;9.00;99.90;;;;;;12795405;23;20246;-84
2023/05/07 00:10:50;;;;;;;8.50;5.47;;;9.10;99.90;;;;;;12794928;23;20706;-83
2023/05/07 00:15:53;;;;;;;8.80;5.07;;;9.10;99.90;;;;;;12794969;23;20180;-83
2023/05/07 00:20:56;;;;;;;8.73;4.63;;;9.00;99.90;;;;;;12770660;23;20658;-84
2023/05/07 00:25:58;;;;;;;8.77;5.50;;;8.90;99.90;;;;;;12795320;23;20171;-83
2023/05/07 00:31:01;;;;;;;7.00;5.80;;;8.70;99.90;;;;;;12799557;23;20207;-83
2023/05/07 00:36:04;;;;;;;6.63;6.00;;;8.60;99.90;;;;;;12771406;23;20184;-84
2023/05/07 00:41:06;;;;;;;6.80;5.57;;;8.50;99.90;;;;;;12776728;23;20635;-83
2023/05/07 00:46:09;;;;;;;7.97;6.20;;;8.60;99.90;;;;;;12769468;23;20184;-83
2023/05/07 00:51:12;;;;;;;8.77;5.93;;;8.50;99.90;;;;;;12795036;23;20211;-84
2023/05/07 00:56:16;;;;;;;10.80;6.87;;;8.60;99.90;;;;;;12808248;23;20206;-82
2023/05/07 01:01:18;;;;;;;13.80;9.27;;;8.40;99.90;;;;;;12795953;23;20172;-82
2023/05/07 01:06:23;;;;;;;12.67;8.83;;;8.30;99.90;;;;;;12816978;23;20183;-83
2023/05/07 01:11:26;;;;;;;11.20;7.60;;;8.20;99.90;;;;;;12820093;23;20253;-83
2023/05/07 01:16:28;;;;;;;16.20;8.33;;;8.10;99.90;;;;;;12790259;23;20176;-83
2023/05/07 01:21:34;;;;;;;9.17;7.30;;;7.80;99.90;;;;;;12794954;23;20204;-82
2023/05/07 01:26:39;;;;;;;9.73;6.50;;;7.70;99.90;;;;;;12800408;23;20183;-82
2023/05/07 01:31:43;;;;;;;14.97;7.27;;;7.60;99.90;;;;;;12805194;23;20196;-82
2023/05/07 01:36:46;;;;;;;10.43;7.53;;;7.40;99.90;;;;;;12804464;23;20218;-83
2023/05/07 01:41:49;;;;;;;11.33;6.67;;;7.30;99.90;;;;;;12804086;23;20206;-83
2023/05/07 01:46:53;;;;;;;8.60;6.97;;;7.20;99.90;;;;;;12779110;23;20191;-83
2023/05/07 01:51:56;;;;;;;9.87;5.73;;;7.40;99.90;;;;;;12801519;23;20256;-82
2023/05/07 01:56:58;;;;;;;10.93;8.17;;;7.40;99.90;;;;;;12827744;23;20168;-83
2023/05/07 02:02:01;;;;;;;9.37;5.80;;;7.60;99.90;;;;;;12800310;23;20214;-83
2023/05/07 02:07:05;;;;;;;10.07;6.77;;;7.70;99.90;;;;;;12802854;23;20184;-83
2023/05/07 02:12:08;;;;;;;10.10;6.97;;;7.60;99.90;;;;;;12802590;23;20236;-83
2023/05/07 02:17:11;;;;;;;11.13;8.60;;;7.80;99.90;;;;;;12779045;23;20202;-82
2023/05/07 02:22:13;;;;;;;14.23;9.10;;;8.00;99.90;;;;;;12832951;23;20206;-83
2023/05/07 02:27:16;;;;;;;16.47;8.17;;;8.00;99.90;;;;;;12806289;23;20207;-84
2023/05/07 02:32:20;;;;;;;9.23;6.50;;;7.80;99.90;;;;;;12804079;23;20203;-82
2023/05/07 02:37:22;;;;;;;5.63;5.03;;;7.80;99.90;;;;;;12808290;23;20180;-82
2023/05/07 02:42:25;;;;;;;15.03;8.80;;;8.10;99.90;;;;;;12810172;23;20183;-82
2023/05/07 02:47:28;;;;;;;10.30;8.60;;;8.00;99.90;;;;;;12836874;23;20472;-83
2023/05/07 02:52:33;;;;;;;11.50;8.00;;;7.80;99.90;;;;;;12784183;23;20195;-82
2023/05/07 02:57:35;;;;;;;8.33;7.00;;;7.80;99.90;;;;;;12807614;23;20180;-82
2023/05/07 03:02:39;;;;;;;12.13;6.20;;;8.00;99.90;;;;;;12806474;23;20654;-84
2023/05/07 03:07:45;;;;;;;9.50;7.70;;;8.10;99.90;;;;;;12803751;23;20180;-82
2023/05/07 03:12:48;;;;;;;8.47;7.07;;;8.00;99.90;;;;;;12800906;23;20243;-80
2023/05/07 03:17:52;;;;;;;13.10;8.50;;;8.10;99.90;;;;;;12801388;23;20577;-81
2023/05/07 03:22:55;;;;;;;10.67;7.27;;;7.90;99.90;;;;;;12789196;23;20204;-83
2023/05/07 03:27:58;;;;;;;7.10;4.80;;;8.00;99.90;;;;;;12774159;23;20184;-83
2023/05/07 03:33:08;;;;;;;9.23;6.73;;;8.10;99.90;;;;;;12754957;23;20198;-83
2023/05/07 03:38:12;;;;;;;15.37;8.37;;;8.10;99.90;;;;;;12777354;23;20183;-84
2023/05/07 03:43:14;;;;;;;12.43;8.50;;;8.20;99.90;;;;;;12774390;23;20191;-84
2023/05/07 03:48:22;;;;;;;11.80;6.70;;;8.10;99.90;;;;;;12774572;23;20176;-84
2023/05/07 03:53:27;;;;;;;12.77;7.80;;;8.20;99.90;;;;;;12774192;23;20192;-84
2023/05/07 03:58:29;;;;;;;9.73;6.43;;;8.20;99.90;;;;;;12801045;23;20226;-84
2023/05/07 04:03:35;;;;;;;14.23;8.43;;;8.10;99.90;;;;;;12773961;23;20176;-84
2023/05/07 04:08:38;;;;;;;13.23;7.70;;;8.20;99.90;;;;;;12774454;23;20187;-84
2023/05/07 04:13:42;;;;;;;11.23;7.53;;;8.40;99.90;;;;;;12774441;23;20199;-84
2023/05/07 04:18:45;;;;;;;7.93;6.33;;;8.10;99.90;;;;;;12774121;23;20182;-86
2023/05/07 04:23:48;;;;;;;11.00;7.43;;;8.10;99.90;;;;;;12770639;23;20200;-84
2023/05/07 04:28:50;;;;;;;12.60;8.00;;;8.30;99.90;;;;;;12799130;23;20507;-85
2023/05/07 04:33:53;;;;;;;15.77;9.80;;;8.50;99.90;;;;;;12815887;23;20192;-84
2023/05/07 04:38:56;;;;;;;8.60;7.23;;;8.70;99.90;;;;;;12746826;23;20179;-84
2023/05/07 04:43:59;;;;;;;8.60;6.70;;;9.00;99.90;;;;;;12772597;23;20179;-84
2023/05/07 04:49:05;;;;;;;8.20;6.63;;;9.30;99.90;;;;;;12771695;23;20184;-84
2023/05/07 04:54:08;;;;;;;9.40;6.57;;;9.50;99.90;;;;;;12798123;23;20234;-84
2023/05/07 04:59:10;;;;;;;10.83;7.93;;;9.60;99.90;;;;;;12798280;23;20160;-84
2023/05/07 05:04:16;;;;;;;11.10;7.20;;;9.70;99.90;;;;;;12816316;23;20218;-84
2023/05/07 05:09:19;;;;;;;5.63;5.07;;;9.90;99.90;;;;;;12797181;23;20493;-84
2023/05/07 05:14:21;;;;;;;7.80;5.57;;;10.40;99.90;;;;;;12770719;23;20204;-84
2023/05/07 05:19:26;;;;;;;6.43;5.20;;;10.30;99.90;;;;;;12770434;23;20569;-84
2023/05/07 05:24:28;;;;;;;7.30;5.90;;;10.40;99.90;;;;;;12771216;23;20714;-84
2023/05/07 05:29:31;;;;;;;5.87;3.67;;;10.10;99.90;;;;;;12771279;23;20210;-85
2023/05/07 05:34:34;;;;;;;4.53;4.13;;;10.30;99.90;;;;;;12771642;23;20262;-84
2023/05/07 05:39:37;;;;;;;5.73;4.07;;;10.70;99.90;;;;;;12771620;23;20492;-84
2023/05/07 05:44:42;;;;;;;4.10;3.73;;;10.90;99.90;;;;;;12771499;23;20238;-85
2023/05/07 05:49:45;;;;;;;4.47;3.60;;;10.60;99.90;;;;;;12798124;23;20214;-84
2023/05/07 05:54:50;;;;;;;4.70;2.67;;;11.00;99.90;;;;;;12795807;23;20196;-84
2023/05/07 05:59:54;;;;;;;3.27;2.43;;;11.60;99.90;;;;;;12769153;23;20172;-85
2023/05/07 06:04:57;;;;;;;4.20;3.27;;;11.60;99.90;;;;;;12769412;23;20183;-84
2023/05/07 06:10:00;;;;;;;3.90;3.40;;;11.70;98.80;;;;;;12795977;23;20511;-85
2023/05/07 06:15:06;;;;;;;3.93;3.27;;;11.80;99.90;;;;;;12768689;23;20196;-86
2023/05/07 06:20:09;;;;;;;3.07;2.60;;;11.80;98.50;;;;;;12768464;23;20199;-84
2023/05/07 06:25:14;;;;;;;3.43;2.77;;;12.00;99.90;;;;;;12767788;23;20188;-84
2023/05/07 06:30:18;;;;;;;3.10;2.37;;;12.00;98.00;;;;;;12767993;23;20230;-83
2023/05/07 06:35:21;;;;;;;6.10;2.83;;;12.00;97.00;;;;;;12767444;23;20199;-84
2023/05/07 06:40:23;;;;;;;3.20;2.90;;;12.00;98.00;;;;;;12767933;23;20179;-83
2023/05/07 06:45:26;;;;;;;3.63;2.40;;;11.80;98.60;;;;;;12768088;23;20175;-83
2023/05/07 06:50:30;;;;;;;4.03;2.33;;;11.90;95.40;;;;;;12768084;23;20219;-84
2023/05/07 06:55:34;;;;;;;3.97;3.13;;;12.20;95.80;;;;;;12768135;23;20204;-84
2023/05/07 07:00:36;;;;;;;6.17;2.37;;;12.70;99.00;;;;;;12795534;23;20545;-83
2023/05/07 07:05:43;;;;;;;3.23;2.37;;;12.70;96.60;;;;;;12767825;23;20184;-84
2023/05/07 07:10:46;;;;;;;3.47;1.80;;;12.90;95.70;;;;;;12768509;23;20254;-84
2023/05/07 07:15:49;;;;;;;2.10;1.53;;;13.20;94.50;;;;;;12767919;23;20200;-83
2023/05/07 07:20:53;;;;;;;2.97;2.67;;;13.50;92.30;;;;;;12770835;23;20670;-83
2023/05/07 07:25:56;;;;;;;2.43;2.17;;;13.80;95.20;;;;;;12771950;23;20175;-84
2023/05/07 07:30:59;;;;;;;2.67;2.13;;;13.90;93.10;;;;;;12772592;23;20561;-84
2023/05/07 07:36:06;;;;;;;3.83;2.70;;;14.20;89.50;;;;;;12770121;23;20199;-83
2023/05/07 07:41:09;;;;;;;3.07;1.90;;;14.50;90.00;;;;;;12771366;23;20472;-84
2023/05/07 07:46:12;;;;;;;3.07;2.17;;;14.70;89.00;;;;;;12770897;23;20206;-84
2023/05/07 07:51:17;;;;;;;2.47;1.53;;;14.70;89.90;;;;;;12771219;23;20530;-84
2023/05/07 07:56:20;;;;;;;3.03;2.60;;;14.50;79.80;;;;;;12772057;23;20262;-83
2023/05/07 08:01:23;;;;;;;2.43;2.17;;;14.30;89.80;;;;;;12771220;23;20175;-83
2023/05/07 08:06:26;;;;;;;1.73;1.37;;;14.40;90.00;;;;;;12798203;23;20227;-84
2023/05/07 08:11:30;;;;;;;2.90;2.33;;;14.30;82.40;;;;;;12771351;23;20215;-83
2023/05/07 08:16:33;;;;;;;2.13;1.80;;;14.50;90.50;;;;;;12795238;23;20196;-84
2023/05/07 08:21:39;;;;;;;4.10;2.20;;;14.60;81.80;;;;;;12770021;23;20203;-83
2023/05/07 08:26:44;;;;;;;2.63;2.43;;;14.50;79.70;;;;;;12770700;23;20184;-83
2023/05/07 08:31:49;;;;;;;3.40;2.27;;;14.30;86.60;;;;;;12770753;23;20238;-83
2023/05/07 08:36:52;;;;;;;2.97;2.43;;;14.10;87.80;;;;;;12768122;23;20262;-83
2023/05/07 08:42:01;;;;;;;2.87;2.63;;;14.60;89.80;;;;;;12768470;23;20176;-83
2023/05/07 08:47:07;;;;;;;3.47;2.70;;;14.90;80.30;;;;;;12770761;23;20176;-83
2023/05/07 08:52:12;;;;;;;3.37;2.47;;;15.00;86.10;;;;;;12770241;23;20176;-83
2023/05/07 08:57:15;;;;;;;1.83;1.73;;;15.20;80.70;;;;;;12769844;23;20183;-82
2023/05/07 09:02:18;;;;;;;3.77;3.13;;;15.10;81.50;;;;;;12768406;23;20179;-82
2023/05/07 09:07:22;;;;;;;3.77;2.97;;;14.70;83.40;;;;;;12794213;23;20252;-83
2023/05/07 09:12:25;;;;;;;3.20;2.53;;;14.70;81.60;;;;;;12768799;23;20176;-82
2023/05/07 09:17:28;;;;;;;2.17;1.93;;;14.70;79.20;;;;;;12796828;23;20546;-82
2023/05/07 09:22:32;;;;;;;2.67;1.63;;;14.60;76.50;;;;;;12768061;23;20254;-83
2023/05/07 09:27:41;;;;;;;4.40;2.23;;;14.50;75.10;;;;;;12790745;23;20172;-84
2023/05/07 09:32:44;;;;;;;2.27;1.63;;;14.40;74.20;;;;;;12790405;23;20188;-83
2023/05/07 09:37:58;;;;;;;2.60;2.00;;;14.40;75.10;;;;;;12743483;23;20627;-82
2023/05/07 09:43:13;;;;;;;2.63;2.07;;;14.40;77.30;;;;;;12765241;23;20192;-83
2023/05/07 09:48:27;;;;;;;2.50;1.83;;;14.50;77.70;;;;;;12765615;23;20184;-84
2023/05/07 09:53:31;;;;;;;2.80;1.80;;;14.40;74.00;;;;;;12766290;23;20246;-83
2023/05/07 09:58:37;;;;;;;1.90;1.67;;;14.60;80.80;;;;;;12764600;23;20203;-83
2023/05/07 10:03:43;;;;;;;2.20;2.00;;;14.70;78.40;;;;;;12793036;23;20164;-83
2023/05/07 10:08:47;;;;;;;3.43;2.40;;;14.60;78.80;;;;;;12792903;23;20223;-83
2023/05/07 10:13:53;;;;;;;2.67;2.40;;;14.40;75.20;;;;;;12791915;23;20597;-83
2023/05/07 10:18:58;;;;;;;1.47;1.37;;;14.30;80.00;;;;;;12763832;23;20179;-83
2023/05/07 10:24:36;;;;;;;2.33;1.97;;;14.60;78.00;;;;;;12766511;23;20204;-84
2023/05/07 10:30:13;;;;;;;2.53;2.20;;;14.90;74.90;;;;;;12541823;23;20186;-83
2023/05/07 10:35:26;;;;;;;2.90;2.53;;;15.10;79.40;;;;;;12515837;23;20210;-83
2023/05/07 10:40:31;;;;;;;3.90;1.97;;;15.20;76.20;;;;;;12516519;23;20238;-83
2023/05/07 10:45:34;;;;;;;1.67;1.57;;;15.20;73.90;;;;;;12516296;23;20183;-83
2023/05/07 10:50:40;;;;;;;2.47;1.50;;;15.30;67.70;;;;;;12539901;23;20222;-83
2023/05/07 10:55:52;;;;;;;2.03;1.53;;;15.00;66.30;;;;;;12518636;23;20198;-84
2023/05/07 11:01:02;;;;;;;1.70;1.40;;;15.00;67.00;;;;;;12518391;23;20238;-83
2023/05/07 11:06:16;;;;;;;2.03;1.83;;;14.50;66.70;;;;;;12754375;23;20705;-83
2023/05/07 11:11:52;;;;;;;1.00;0.90;;;14.60;72.70;;;;;;12766662;23;20509;-83
2023/05/07 11:17:12;;;;;;;2.93;1.37;;;14.80;72.80;;;;;;12792245;23;20274;-84
2023/05/07 11:22:30;;;;;;;3.73;1.30;;;15.10;77.50;;;;;;12766072;23;20211;-83
2023/05/07 11:27:53;;;;;;;5.17;2.20;;;15.40;69.30;;;;;;12763250;23;20179;-84
2023/05/07 11:32:58;;;;;;;6.03;1.43;;;15.30;68.90;;;;;;12789849;23;20179;-84
2023/05/07 11:38:02;;;;;;;1.40;1.30;;;15.10;72.40;;;;;;12740298;23;20234;-84
2023/05/07 11:43:11;;;;;;;1.83;1.17;;;15.30;68.40;;;;;;12763576;23;20172;-83
2023/05/07 11:48:14;;;;;;;1.67;1.33;;;15.50;67.40;;;;;;12785320;23;20164;-84
2023/05/07 11:53:17;;;;;;;1.20;1.10;;;15.40;63.20;;;;;;12793432;23;20230;-83
2023/05/07 11:58:25;;;;;;;1.50;1.40;;;15.30;64.30;;;;;;12766603;23;20490;-83
2023/05/07 12:03:28;;;;;;;2.57;1.07;;;15.30;67.60;;;;;;12784445;23;20168;-83
2023/05/07 12:08:38;;;;;;;2.03;1.40;;;15.50;72.90;;;;;;12800733;23;20180;-83
2023/05/07 12:13:41;;;;;;;2.43;2.23;;;15.30;62.10;;;;;;12792988;23;20191;-83
2023/05/07 12:18:44;;;;;;;1.47;1.23;;;15.30;70.10;;;;;;12766610;23;20552;-84
2023/05/07 12:23:47;;;;;;;2.30;1.50;;;15.30;73.20;;;;;;12790581;23;20215;-84
2023/05/07 12:28:50;;;;;;;2.07;1.53;;;15.80;67.50;;;;;;12767092;23;20191;-84
2023/05/07 12:33:52;;;;;;;3.10;1.20;;;15.40;62.80;;;;;;12810717;23;20191;-83
2023/05/07 12:38:55;;;;;;;3.83;1.60;;;15.20;66.80;;;;;;12791870;23;20492;-84
2023/05/07 12:43:58;;;;;;;6.35;1.95;;;15.80;65.50;;;;;;12789250;23;20403;-85
2023/05/07 12:49:00;;;;;;;3.60;1.83;;;15.60;57.50;;;;;;12765927;23;20500;-84
2023/05/07 12:54:03;;;;;;;4.23;1.80;;;15.40;56.00;;;;;;12791553;23;20184;-84
2023/05/07 12:59:06;;;;;;;2.83;1.67;;;15.40;56.70;;;;;;12765385;23;20191;-85
2023/05/07 13:04:08;;;;;;;8.87;3.10;;;15.50;55.40;;;;;;12765549;23;20195;-84
2023/05/07 13:09:11;;;;;;;9.60;2.83;;;15.50;63.40;;;;;;12789833;23;20660;-84
2023/05/07 13:14:13;;;;;;;5.03;2.63;;;15.70;71.00;;;;;;12791305;23;20203;-84
2023/05/07 13:19:17;;;;;;;7.33;3.17;;;15.50;68.50;;;;;;12763209;23;20164;-84
2023/05/07 13:24:19;;;;;;;3.07;2.77;;;15.40;69.40;;;;;;12762855;23;20249;-84
2023/05/07 13:29:29;;;;;;;9.93;4.23;;;15.50;63.40;;;;;;12790640;23;20231;-84
2023/05/07 13:34:32;;;;;;;7.30;3.37;;;15.90;64.50;;;;;;12762778;23;20251;-84
2023/05/07 13:39:34;;;;;;;3.53;2.00;;;16.20;71.60;;;;;;12790635;23;20242;-83
2023/05/07 13:44:37;;;;;;;2.33;1.87;;;16.10;58.80;;;;;;12790833;23;20657;-83
2023/05/07 13:49:39;;;;;;;6.97;2.70;;;16.00;48.50;;;;;;12790153;23;20185;-83
2023/05/07 13:54:42;;;;;;;7.37;2.83;;;16.10;61.30;;;;;;12789477;23;20250;-84
2023/05/07 13:59:45;;;;;;;3.27;2.37;;;16.00;58.50;;;;;;12788453;23;20180;-84
2023/05/07 14:04:47;;;;;;;6.63;3.10;;;15.90;53.90;;;;;;12790063;23;20190;-84
2023/05/07 14:09:50;;;;;;;4.40;2.33;;;15.90;54.20;;;;;;12762710;23;20257;-84
2023/05/07 14:14:52;;;;;;;3.00;2.40;;;15.70;54.60;;;;;;12790150;23;20235;-84
2023/05/07 14:19:58;;;;;;;2.40;2.00;;;15.30;48.80;;;;;;12763739;23;20204;-84
2023/05/07 14:25:00;;;;;;;2.70;2.30;;;14.60;51.00;;;;;;12764408;23;20171;-84
2023/05/07 14:30:08;;;;;;;2.50;2.30;;;14.50;51.70;;;;;;12810673;23;20172;-84
2023/05/07 14:35:11;;;;;;;2.73;2.30;;;14.60;53.30;;;;;;12794842;23;20262;-84
2023/05/07 14:40:14;;;;;;;2.93;2.17;;;14.40;52.20;;;;;;12795207;23;20172;-84
2023/05/07 14:45:18;;;;;;;3.70;1.87;;;14.00;49.70;;;;;;12768056;23;20613;-83
2023/05/07 14:50:20;;;;;;;2.20;2.00;;;13.80;53.60;;;;;;12812697;23;20172;-83
2023/05/07 14:55:23;;;;;;;4.27;2.70;;;14.40;56.20;;;;;;12767085;23;20541;-83
2023/05/07 15:00:25;;;;;;;2.83;2.30;;;14.80;55.10;;;;;;12795078;23;20218;-83
2023/05/07 15:05:28;;;;;;;3.57;2.63;;;14.70;63.50;;;;;;12812864;23;20167;-84
2023/05/07 15:10:31;;;;;;;2.47;1.93;;;14.50;64.80;;;;;;12793130;23;20172;-83
2023/05/07 15:15:34;;;;;;;3.87;3.03;;;14.50;66.50;;;;;;12793978;23;20227;-83
2023/05/07 15:20:37;;;;;;;4.83;2.50;;;14.90;68.40;;;;;;12767273;23;20305;-83
2023/05/07 15:25:40;;;;;;;4.90;2.80;;;15.30;74.20;;;;;;12793797;23;20203;-83
2023/05/07 15:30:43;;;;;;;4.10;3.00;;;15.50;64.80;;;;;;12793085;23;20184;-83
2023/05/07 15:35:45;;;;;;;5.27;3.07;;;15.70;64.40;;;;;;12792984;23;20202;-83
2023/05/07 15:40:49;;;;;;;2.40;2.00;;;15.70;71.10;;;;;;12767060;23;20584;-83
2023/05/07 15:45:53;;;;;;;3.77;1.83;;;15.40;52.90;;;;;;12793746;23;20171;-83
2023/05/07 15:50:55;;;;;;;5.33;2.37;;;15.70;63.50;;;;;;12792543;23;20211;-83
2023/05/07 15:55:58;;;;;;;4.87;2.70;;;15.70;56.30;;;;;;12766557;23;20199;-84
2023/05/07 16:01:00;;;;;;;3.73;3.07;;;15.50;59.80;;;;;;12811611;23;20168;-83
2023/05/07 16:06:04;;;;;;;4.43;3.20;;;15.20;62.10;;;;;;12790119;23;20196;-83
2023/05/07 16:11:07;;;;;;;6.20;2.37;;;15.00;66.50;;;;;;12788846;23;20623;-82
2023/05/07 16:16:09;;;;;;;4.03;2.63;;;15.00;70.40;;;;;;12761829;23;20235;-82
2023/05/07 16:21:12;;;;;;;3.70;2.40;;;15.00;70.30;;;;;;12788853;23;20279;-82
2023/05/07 16:26:15;;;;;;;3.73;2.60;;;14.90;68.60;;;;;;12763122;23;20172;-83
2023/05/07 16:31:18;;;;;;;5.27;2.53;;;15.10;74.20;;;;;;12787405;23;20185;-82
2023/05/07 16:36:21;;;;;;;4.37;2.70;;;15.30;69.20;;;;;;12760461;23;20188;-83
2023/05/07 16:41:24;;;;;;;6.27;3.20;;;15.40;76.40;;;;;;12786250;23;20566;-83
2023/05/07 16:46:27;;;;;;;6.47;2.67;;;15.60;73.30;;;;;;12780298;23;20172;-83
2023/05/07 16:51:29;;;;;;;4.37;2.70;;;15.80;72.90;;;;;;12787555;23;20592;-83
2023/05/07 16:56:32;;;;;;;5.80;2.87;;;15.70;68.40;;;;;;12787958;23;20515;-84
2023/05/07 17:01:34;;;;;;;3.30;2.63;;;15.40;64.60;;;;;;12788170;23;20797;-84
2023/05/07 17:06:37;;;;;;;6.53;3.67;;;14.90;62.80;;;;;;12806402;23;20191;-84
2023/05/07 17:11:39;;;;;;;3.30;2.20;;;14.80;80.00;;;;;;12788841;23;20515;-85
2023/05/07 17:16:42;;;;;;;3.83;2.80;;;14.60;82.90;;;;;;12765727;23;20218;-83
2023/05/07 17:21:45;;;;;;;7.73;4.13;;;14.40;83.50;;;;;;12790066;23;20200;-84
2023/05/07 17:26:47;;;;;;;10.07;5.27;;;14.00;81.30;;;;;;12737965;23;20254;-85
2023/05/07 17:31:50;;;;;;;7.30;4.43;;;13.70;82.80;;;;;;12789867;23;20646;-84
2023/05/07 17:36:53;;;;;;;4.77;3.70;;;13.40;85.40;;;;;;12789516;23;20202;-85
2023/05/07 17:41:56;;;;;;;8.03;4.87;;;13.20;88.10;;;;;;12788287;23;20175;-85
2023/05/07 17:46:58;;;;;;;11.07;6.90;;;13.00;85.90;;;;;;12789175;23;20183;-85
2023/05/07 17:52:01;;;;;;;19.23;9.93;;;12.80;89.40;;;;;;12763153;23;20217;-85
2023/05/07 17:57:03;;;;;;;11.70;6.87;;;12.50;91.10;;;;;;12788025;23;20203;-85
2023/05/07 18:02:06;;;;;;;10.40;5.43;;;12.00;90.90;;;;;;12789314;23;20211;-85
2023/05/07 18:07:08;;;;;;;6.33;5.00;;;11.70;92.40;;;;;;12762068;23;20242;-85
2023/05/07 18:12:11;;;;;;;5.77;4.77;;;10.00;99.90;;;;;;12790426;23;20504;-85
2023/05/07 18:17:15;;;;;;;10.47;5.10;;;9.90;99.90;;;;;;12789306;23;20250;-84
2023/05/07 18:22:17;;;;;;;8.03;5.90;;;9.30;99.90;;;;;;12786183;23;20695;-84
2023/05/07 18:27:20;;;;;;;10.20;7.30;;;9.00;99.90;;;;;;12788511;23;20266;-85
2023/05/07 18:32:23;;;;;;;10.93;7.83;;;8.30;99.90;;;;;;12763550;23;20245;-84
2023/05/07 18:37:25;;;;;;;13.53;10.20;;;8.20;99.90;;;;;;12763744;23;20207;-85
2023/05/07 18:42:28;;;;;;;14.50;10.90;;;8.00;99.90;;;;;;12788864;23;20179;-85
2023/05/07 18:47:31;;;;;;;17.83;11.57;;;7.40;99.90;;;;;;12790547;23;20185;-84
2023/05/07 18:52:34;;;;;;;19.43;11.00;;;7.30;99.90;;;;;;12788737;23;20504;-84
2023/05/07 18:57:37;;;;;;;17.97;12.63;;;7.00;99.90;;;;;;12790082;23;20207;-84
2023/05/07 19:02:40;;;;;;;15.33;10.80;;;6.80;99.90;;;;;;12790154;23;20192;-84
2023/05/07 19:07:42;;;;;;;16.17;10.93;;;6.50;99.90;;;;;;12788954;23;20621;-84
2023/05/07 19:12:45;;;;;;;12.67;9.77;;;6.40;99.90;;;;;;12762603;23;20239;-84
2023/05/07 19:17:49;;;;;;;18.70;12.37;;;6.20;99.90;;;;;;12792586;23;20188;-85
2023/05/07 19:22:51;;;;;;;20.17;15.77;;;6.10;99.90;;;;;;12788036;23;20203;-85
2023/05/07 19:27:55;;;;;;;29.63;18.47;;;6.00;99.90;;;;;;12790296;23;20179;-84
2023/05/07 19:33:01;;;;;;;17.17;12.47;;;6.10;99.90;;;;;;12763153;23;20167;-84
2023/05/07 19:38:04;;;;;;;12.63;9.93;;;6.20;99.90;;;;;;12762981;23;20203;-85
2023/05/07 19:43:07;;;;;;;12.73;9.83;;;6.40;99.90;;;;;;12787976;23;20571;-84
2023/05/07 19:48:09;;;;;;;15.37;12.00;;;6.30;99.90;;;;;;12788313;23;20246;-85
2023/05/07 19:53:12;;;;;;;17.37;13.20;;;6.30;99.90;;;;;;12789221;23;20192;-85
2023/05/07 19:58:15;;;;;;;21.23;15.33;;;6.20;99.90;;;;;;12788822;23;20258;-84
2023/05/07 20:03:18;;;;;;;21.17;14.97;;;6.20;99.90;;;;;;12777489;23;20172;-84
2023/05/07 20:08:20;;;;;;;20.73;14.40;;;6.10;99.90;;;;;;12760830;23;20179;-86
2023/05/07 20:13:23;;;;;;;19.73;14.17;;;6.00;99.90;;;;;;12787475;23;20172;-85
2023/05/07 20:18:27;;;;;;;21.83;16.20;;;5.90;99.90;;;;;;12786792;23;20608;-85
2023/05/07 20:23:30;;;;;;;26.07;19.93;;;6.00;99.90;;;;;;12784478;23;20553;-85
2023/05/07 20:28:32;;;;;;;26.53;20.83;;;5.90;99.90;;;;;;12761138;23;20180;-85
2023/05/07 20:33:39;;;;;;;30.03;22.20;;;5.80;99.90;;;;;;12788480;23;20554;-84
2023/05/07 20:38:43;;;;;;;28.77;23.13;;;5.80;99.90;;;;;;12786689;23;20199;-85
2023/05/07 20:43:45;;;;;;;30.23;25.33;;;5.70;99.90;;;;;;12784767;23;20577;-85
2023/05/07 20:48:48;;;;;;;38.17;27.40;;;5.80;99.90;;;;;;12788125;23;20172;-85
2023/05/07 20:53:51;;;;;;;30.43;25.60;;;5.70;99.90;;;;;;12788385;23;20531;-84
2023/05/07 20:58:53;;;;;;;31.93;26.43;;;5.60;99.90;;;;;;12789914;23;20238;-85
2023/05/07 21:03:56;;;;;;;33.07;26.47;;;5.50;99.90;;;;;;12789299;23;20206;-84
2023/05/07 21:08:58;;;;;;;33.23;25.37;;;5.40;99.90;;;;;;12764749;23;20172;-84
2023/05/07 21:14:01;;;;;;;30.73;25.40;;;5.30;99.90;;;;;;12789661;23;20202;-85
2023/05/07 21:19:03;;;;;;;30.97;24.07;;;5.30;99.90;;;;;;12791086;23;20238;-84
2023/05/07 21:24:07;;;;;;;26.80;22.13;;;5.20;99.90;;;;;;12788839;23;20227;-84
2023/05/07 21:29:09;;;;;;;24.37;20.13;;;5.00;99.90;;;;;;12789430;23;20183;-85
2023/05/07 21:34:12;;;;;;;24.67;20.70;;;4.80;99.90;;;;;;12789815;23;20226;-85
2023/05/07 21:39:14;;;;;;;23.13;18.67;;;4.70;99.90;;;;;;12788352;23;20541;-84
2023/05/07 21:44:17;;;;;;;20.77;17.93;;;4.60;99.90;;;;;;12763664;23;20167;-84
2023/05/07 21:49:19;;;;;;;16.73;14.53;;;4.40;99.90;;;;;;12790273;23;20172;-84
2023/05/07 21:54:22;;;;;;;19.07;14.43;;;4.30;99.90;;;;;;12788981;23;20561;-84
2023/05/07 21:59:24;;;;;;;17.80;14.53;;;4.10;99.90;;;;;;12762464;23;20199;-84
2023/05/07 22:04:27;;;;;;;21.40;15.37;;;;;;;;;;12788193;23;20684;-84
2023/05/07 22:09:30;;;;;;;16.20;14.00;;;3.80;99.90;;;;;;12789277;23;20171;-84
2023/05/07 22:14:32;;;;;;;17.07;14.33;;;3.60;99.90;;;;;;12788586;23;20171;-84
2023/05/07 22:19:35;;;;;;;23.23;16.77;;;3.50;99.90;;;;;;12788414;23;20239;-84
2023/05/07 22:24:37;;;;;;;17.73;15.60;;;3.70;99.90;;;;;;12796639;23;20168;-84
2023/05/07 22:29:40;;;;;;;20.47;15.07;;;3.40;99.90;;;;;;12787179;23;20183;-84
2023/05/07 22:34:42;;;;;;;21.27;15.47;;;3.20;99.90;;;;;;12787685;23;20218;-84
2023/05/07 22:39:45;;;;;;;20.33;14.97;;;3.10;99.90;;;;;;12789040;23;20200;-85
2023/05/07 22:44:52;;;;;;;21.00;14.53;;;3.00;99.90;;;;;;12790506;23;20164;-83
2023/05/07 22:49:54;;;;;;;19.23;15.10;;;2.90;99.90;;;;;;12790795;23;20237;-83
2023/05/07 22:54:57;;;;;;;19.90;14.10;;;2.80;99.90;;;;;;12794059;23;20175;-84
2023/05/07 23:00:00;;;;;;;20.37;15.20;;;2.70;99.90;;;;;;12767760;23;20200;-84
2023/05/07 23:05:02;;;;;;;20.50;15.27;;;2.60;99.90;;;;;;12794034;23;20504;-84
2023/05/07 23:10:06;;;;;;;17.60;13.97;;;2.50;99.90;;;;;;12794513;23;20172;-83
2023/05/07 23:15:09;;;;;;;20.00;15.40;;;2.40;99.90;;;;;;12793878;23;20501;-84
2023/05/07 23:20:12;;;;;;;19.60;15.73;;;2.30;99.90;;;;;;12767636;23;20258;-83
2023/05/07 23:25:16;;;;;;;18.77;14.83;;;2.30;99.90;;;;;;12792560;23;20184;-84
2023/05/07 23:30:19;;;;;;;19.37;13.90;;;2.20;99.90;;;;;;12792578;23;20514;-84
2023/05/07 23:35:22;;;;;;;20.10;13.90;;;2.10;99.90;;;;;;12767040;23;20218;-84
2023/05/07 23:40:25;;;;;;;17.83;14.17;;;1.90;99.90;;;;;;12764647;23;20230;-84
2023/05/07 23:45:28;;;;;;;20.17;15.13;;;1.90;99.90;;;;;;12765137;23;20180;-84
2023/05/07 23:50:30;;;;;;;20.67;15.50;;;1.90;99.90;;;;;;12792866;23;20176;-84
2023/05/07 23:55:33;;;;;;;19.57;14.57;;;1.70;99.90;;;;;;12793438;23;20172;-84
